Time;durP1;ratioP1;P1;durP2;ratioP2;P2;SDS_P1;SDS_P2;PMS_P1;PMS_P2;Temp;Humidity;BMP_temperature;BMP_pressure;BME280_temperature;BME280_humidity;BME280_pressure;Samples;Min_cycle;Max_cycle;Signal;HPM_P1;HPM_P2
2021/05/12 00:00:30;;;;;;;6.31;1.99;;;;;;;16.12;46.05;99471.88;375400;107;1961922;-72
2021/05/12 00:01:44;;;;;;;6.86;2.26;;;;;;;16.19;46.16;99467.08;395390;104;2010978;-71
2021/05/12 00:02:50;;;;;;;6.32;2.39;;;;;;;16.06;46.23;99475.58;376191;107;1961917;-71
2021/05/12 00:04:13;;;;;;;4.62;1.72;;;;;;;16.04;46.13;99478.56;321819;105;2144116;-72
2021/05/12 00:05:22;;;;;;;8.26;1.98;;;;;;;16.06;45.42;99481.02;352052;105;1960799;-71
2021/05/12 00:06:34;;;;;;;6.27;1.58;;;;;;;16.13;44.54;99480.88;350466;102;2050740;-71
2021/05/12 00:07:39;;;;;;;4.95;1.63;;;;;;;15.94;44.45;99481.11;346694;103;1960715;-71
2021/05/12 00:08:44;;;;;;;6.54;1.77;;;;;;;15.93;44.11;99484.91;371238;105;1960755;-71
2021/05/12 00:09:57;;;;;;;3.19;1.52;;;;;;;16.01;44.00;99484.51;390495;104;2070957;-72
2021/05/12 00:11:03;;;;;;;3.17;1.63;;;;;;;15.85;43.82;99484.47;372974;107;1969983;-72
2021/05/12 00:12:10;;;;;;;5.04;1.76;;;;;;;15.79;43.71;99486.27;315691;107;2139980;-73
2021/05/12 00:13:22;;;;;;;6.29;1.64;;;;;;;15.82;43.72;99478.46;391061;101;2069859;-72
2021/05/12 00:14:31;;;;;;;6.32;1.28;;;;;;;15.70;43.34;99482.30;370336;108;1960605;-72
2021/05/12 00:15:43;;;;;;;3.68;1.23;;;;;;;15.78;43.23;99493.62;386214;103;1984724;-72
2021/05/12 00:16:50;;;;;;;3.66;1.26;;;;;;;15.61;43.30;99490.84;359708;105;2877816;-72
2021/05/12 00:18:19;;;;;;;6.27;1.54;;;;;;;15.54;43.31;99497.49;367453;107;1960828;-72
2021/05/12 00:19:28;;;;;;;4.38;1.76;;;;;;;15.51;43.63;99489.81;400902;102;1984812;-71
2021/05/12 00:20:35;;;;;;;2.94;0.93;;;;;;;15.27;43.82;99483.59;332362;104;2827639;-71
2021/05/12 00:21:54;;;;;;;3.62;1.43;;;;;;;15.38;43.88;99491.74;373757;103;2923906;-72
2021/05/12 00:23:04;;;;;;;2.88;1.00;;;;;;;15.20;43.79;99472.05;359570;110;1960866;-72
2021/05/12 00:24:25;;;;;;;5.09;1.10;;;;;;;15.10;43.69;99487.08;294696;108;2164859;-71
2021/05/12 00:25:37;;;;;;;3.42;1.14;;;;;;;15.11;43.72;99483.30;376576;107;1984687;-71
2021/05/12 00:26:43;;;;;;;7.21;2.53;;;;;;;14.94;43.63;99490.54;361066;109;1960904;-71
2021/05/12 00:27:56;;;;;;;3.75;1.25;;;;;;;15.00;43.66;99486.86;385487;106;1984590;-72
2021/05/12 00:29:02;;;;;;;2.36;1.09;;;;;;;14.87;43.59;99492.55;374515;106;1960702;-72
2021/05/12 00:30:27;;;;;;;2.62;1.14;;;;;;;14.83;43.65;99483.23;363300;107;1960788;-72
2021/05/12 00:31:40;;;;;;;2.79;1.04;;;;;;;14.89;43.58;99480.37;394383;103;1960848;-72
2021/05/12 00:32:45;;;;;;;5.33;0.91;;;;;;;14.70;43.74;99485.13;349513;103;1967787;-72
2021/05/12 00:33:50;;;;;;;2.63;1.09;;;;;;;14.63;43.92;99479.00;356493;103;1960813;-72
2021/05/12 00:35:04;;;;;;;2.91;1.13;;;;;;;14.70;44.10;99478.86;389324;106;1984829;-72
2021/05/12 00:36:11;;;;;;;3.01;1.25;;;;;;;14.54;44.18;99483.13;350336;107;1960800;-72
2021/05/12 00:37:16;;;;;;;2.92;1.26;;;;;;;14.51;44.18;99483.56;362678;111;1960683;-72
2021/05/12 00:38:28;;;;;;;4.45;1.57;;;;;;;14.55;44.36;99476.61;396372;103;1986004;-71
2021/05/12 00:39:34;;;;;;;3.21;1.11;;;;;;;14.39;44.61;99485.44;379419;107;1962060;-71
2021/05/12 00:40:46;;;;;;;2.79;1.06;;;;;;;14.42;44.72;99484.97;394311;104;2072002;-72
2021/05/12 00:41:51;;;;;;;2.44;1.18;;;;;;;14.27;44.81;99480.83;375216;105;1962975;-72
2021/05/12 00:43:15;;;;;;;1.84;1.01;;;;;;;14.24;44.92;99485.91;324727;106;2817970;-72
2021/05/12 00:44:27;;;;;;;3.43;1.38;;;;;;;14.27;45.04;99480.01;384876;106;1961949;-71
2021/05/12 00:45:33;;;;;;;2.22;1.00;;;;;;;14.12;45.07;99483.16;364315;110;1969046;-71
2021/05/12 00:47:05;;;;;;;5.56;1.48;;;;;;;14.16;45.39;99484.37;420909;99;1985933;-70
2021/05/12 00:48:11;;;;;;;2.81;1.30;;;;;;;14.05;45.33;99482.43;365203;101;1962003;-71
2021/05/12 00:49:35;;;;;;;2.76;1.00;;;;;;;14.04;45.42;99480.79;389751;102;1961007;-70
2021/05/12 00:50:41;;;;;;;3.43;1.29;;;;;;;14.01;45.54;99486.69;351139;104;1960848;-72
2021/05/12 00:51:53;;;;;;;2.53;1.02;;;;;;;14.09;45.58;99489.06;391806;104;2070937;-72
2021/05/12 00:53:00;;;;;;;5.14;1.35;;;;;;;13.94;45.76;99489.50;374288;108;1969004;-74
2021/05/12 00:54:07;;;;;;;3.65;1.31;;;;;;;13.91;45.84;99486.42;368783;106;1961972;-71
2021/05/12 00:55:20;;;;;;;2.80;1.16;;;;;;;13.98;46.10;99485.27;393856;104;1961837;-73
2021/05/12 00:56:25;;;;;;;9.61;1.43;;;;;;;13.81;46.16;99493.27;339058;107;1969941;-73
2021/05/12 00:57:31;;;;;;;7.34;2.71;;;;;;;13.78;46.42;99490.16;354639;107;1960924;-73
2021/05/12 00:58:36;;;;;;;2.14;1.02;;;;;;;13.76;46.61;99478.70;375270;107;1965350;-72
2021/05/12 00:59:50;;;;;;;4.01;1.24;;;;;;;13.82;46.82;99486.77;394783;104;1985976;-72
2021/05/12 01:00:56;;;;;;;3.56;1.31;;;;;;;13.69;46.79;99483.42;326628;107;2026331;-72
2021/05/12 01:02:08;;;;;;;4.46;1.57;;;;;;;13.76;46.89;99478.70;395388;104;2070939;-72
2021/05/12 01:03:14;;;;;;;3.86;1.62;;;;;;;13.61;47.03;99477.25;379762;105;1961057;-71
2021/05/12 01:04:38;;;;;;;3.30;1.40;;;;;;;13.56;46.79;99476.28;375105;107;1960998;-72
2021/05/12 01:05:54;;;;;;;4.77;1.79;;;;;;;13.66;46.51;99476.56;369965;104;2376014;-72
2021/05/12 01:07:00;;;;;;;3.34;1.56;;;;;;;13.52;46.17;99478.64;375937;107;1961915;-72
2021/05/12 01:08:12;;;;;;;3.57;1.24;;;;;;;13.61;46.12;99473.71;394650;104;1961956;-72
2021/05/12 01:09:18;;;;;;;3.44;1.26;;;;;;;13.48;46.10;99484.75;370059;107;1969994;-71
2021/05/12 01:10:41;;;;;;;3.11;1.34;;;;;;;13.46;46.05;99482.25;369227;109;1962951;-72
2021/05/12 01:11:47;;;;;;;3.34;1.33;;;;;;;13.43;46.08;99481.89;367849;107;1961925;-72
2021/05/12 01:13:00;;;;;;;5.88;1.55;;;;;;;13.52;46.18;99494.07;394782;104;1985908;-72
2021/05/12 01:14:06;;;;;;;4.94;1.69;;;;;;;13.38;46.24;99491.53;347860;109;1963923;-73
2021/05/12 01:15:18;;;;;;;4.23;1.92;;;;;;;13.49;46.60;99483.67;397324;104;1985919;-73
2021/05/12 01:16:24;;;;;;;3.53;1.54;;;;;;;13.32;46.53;99478.07;372834;107;1961927;-72
2021/05/12 01:17:30;;;;;;;4.36;1.67;;;;;;;13.30;46.62;99480.17;333490;107;2638013;-72
2021/05/12 01:18:36;;;;;;;4.36;1.75;;;;;;;13.27;46.63;99486.06;351289;107;1961990;-72
2021/05/12 01:19:48;;;;;;;3.10;1.72;;;;;;;13.33;46.70;99471.58;384940;105;1985987;-72
2021/05/12 01:20:57;;;;;;;3.26;1.42;;;;;;;13.17;46.70;99470.28;367125;109;1964569;-72
2021/05/12 01:22:02;;;;;;;5.86;1.98;;;;;;;13.13;46.70;99464.50;368826;109;1961931;-72
2021/05/12 01:23:08;;;;;;;4.60;1.66;;;;;;;13.11;46.71;99460.36;367498;109;1961974;-72
2021/05/12 01:24:14;;;;;;;4.47;1.88;;;;;;;13.06;46.85;99463.73;368180;109;1962026;-72
2021/05/12 01:25:26;;;;;;;4.55;1.64;;;;;;;13.13;46.76;99469.92;386883;106;2072012;-72
2021/05/12 01:26:31;;;;;;;4.79;1.60;;;;;;;13.00;46.81;99472.79;369316;110;1964020;-73
2021/05/12 01:27:44;;;;;;;3.25;1.61;;;;;;;13.09;46.94;99467.88;398632;104;1985973;-73
2021/05/12 01:28:53;;;;;;;6.48;1.59;;;;;;;12.93;46.91;99477.45;370183;107;2898990;-73
2021/05/12 01:30:17;;;;;;;3.17;1.29;;;;;;;12.90;46.98;99478.73;373128;107;1963004;-73
2021/05/12 01:31:49;;;;;;;3.26;1.22;;;;;;;12.95;46.97;99478.88;399883;103;1985917;-73
2021/05/12 01:32:59;;;;;;;3.34;1.05;;;;;;;12.80;47.09;99472.17;378006;106;1964947;-72
2021/05/12 01:34:15;;;;;;;5.89;1.54;;;;;;;12.84;47.19;99471.52;407557;101;1985995;-71
2021/05/12 01:35:20;;;;;;;5.22;1.96;;;;;;;12.72;47.11;99473.30;346035;103;1961963;-72
2021/05/12 01:36:46;;;;;;;5.93;1.04;;;;;;;12.71;47.11;99477.08;381377;103;1962164;-73
2021/05/12 01:37:58;;;;;;;2.48;1.36;;;;;;;12.82;47.22;99478.21;399375;104;1985913;-71
2021/05/12 01:39:05;;;;;;;3.83;1.25;;;;;;;12.66;47.31;99474.20;341781;105;2520935;-73
2021/05/12 01:40:13;;;;;;;2.71;1.30;;;;;;;12.62;47.54;99478.40;373710;104;1960884;-72
2021/05/12 01:41:27;;;;;;;5.78;1.44;;;;;;;12.70;47.77;99476.25;359900;106;1960870;-72
2021/05/12 01:42:33;;;;;;;2.74;1.13;;;;;;;12.56;47.52;99473.89;370449;109;1967807;-73
2021/05/12 01:43:41;;;;;;;3.57;1.84;;;;;;;12.54;47.63;99472.23;333692;109;2547016;-72
2021/05/12 01:44:54;;;;;;;7.65;1.57;;;;;;;12.62;48.18;99470.27;346357;104;2829934;-72
2021/05/12 01:46:00;;;;;;;6.76;1.69;;;;;;;12.48;47.95;99473.11;345352;107;1962028;-72
2021/05/12 01:47:06;;;;;;;5.54;2.08;;;;;;;12.47;47.95;99478.77;375189;107;1961912;-72
2021/05/12 01:48:18;;;;;;;6.45;2.00;;;;;;;12.60;47.79;99475.11;403541;104;1986944;-72
2021/05/12 01:49:29;;;;;;;6.92;1.71;;;;;;;12.46;47.80;99475.23;375610;107;1963031;-69
2021/05/12 01:50:40;;;;;;;6.73;2.16;;;;;;;12.54;47.86;99479.52;399317;104;1987004;-69
2021/05/12 01:51:46;;;;;;;6.10;1.79;;;;;;;12.40;47.88;99488.83;377491;107;1961935;-71
2021/05/12 01:53:11;;;;;;;5.66;1.82;;;;;;;12.39;47.92;99476.35;349024;107;1962001;-70
2021/05/12 01:54:24;;;;;;;9.47;2.97;;;;;;;12.28;48.19;99439.98;354983;106;1994014;-72
2021/05/12 01:55:29;;;;;;;5.72;2.47;;;;;;;12.34;48.12;99478.89;345446;107;1962002;-72
2021/05/12 01:56:42;;;;;;;8.31;2.48;;;;;;;12.43;48.21;99480.25;388710;104;2072935;-71
2021/05/12 01:57:47;;;;;;;6.07;1.86;;;;;;;12.28;48.29;99480.61;371845;106;1969975;-71
2021/05/12 01:59:11;;;;;;;6.24;2.16;;;;;;;12.26;48.38;99485.41;367931;109;1962036;-71
2021/05/12 02:00:35;;;;;;;7.62;2.54;;;;;;;12.34;48.73;99489.73;359501;103;2586943;-72
2021/05/12 02:01:48;;;;;;;6.57;2.14;;;;;;;12.27;48.88;99487.88;376306;104;2242940;-72
2021/05/12 02:02:54;;;;;;;6.05;1.91;;;;;;;12.18;48.88;99494.64;346852;107;1961973;-72
2021/05/12 02:04:02;;;;;;;4.86;1.84;;;;;;;12.15;48.99;99499.68;380485;106;1961969;-71
2021/05/12 02:05:14;;;;;;;9.12;2.04;;;;;;;12.25;48.99;99500.84;380687;102;1985826;-72
2021/05/12 02:06:19;;;;;;;7.89;1.74;;;;;;;12.08;48.92;99497.83;376119;105;1960876;-71
2021/05/12 02:07:24;;;;;;;9.47;2.88;;;;;;;12.05;49.23;99500.98;374347;107;1960853;-71
2021/05/12 02:08:37;;;;;;;6.08;2.17;;;;;;;12.09;49.50;99507.63;395060;104;1985798;-71
2021/05/12 02:09:46;;;;;;;9.14;2.02;;;;;;;11.94;49.47;99515.23;315628;108;2868949;-72
2021/05/12 02:11:05;;;;;;;12.77;2.15;;;;;;;12.04;49.64;99499.34;389774;106;1987027;-72
2021/05/12 02:12:10;;;;;;;5.76;1.73;;;;;;;11.89;49.95;99504.23;365183;109;1961954;-73
2021/05/12 02:13:34;;;;;;;7.31;1.77;;;;;;;11.86;49.70;99508.20;362808;110;1968826;-71
2021/05/12 02:14:46;;;;;;;7.48;1.72;;;;;;;11.95;49.81;99508.75;396840;104;1963951;-73
2021/05/12 02:15:53;;;;;;;8.61;2.04;;;;;;;11.83;49.60;99502.38;336901;105;2693990;-72
2021/05/12 02:17:06;;;;;;;7.47;3.19;;;;;;;11.92;49.98;99500.25;408323;101;1986938;-72
2021/05/12 02:18:13;;;;;;;7.89;2.41;;;;;;;11.77;49.85;99504.05;334939;105;2767917;-73
2021/05/12 02:19:18;;;;;;;10.42;2.08;;;;;;;11.73;49.90;99508.25;376793;105;1962000;-73
2021/05/12 02:20:29;;;;;;;9.08;2.54;;;;;;;11.71;49.94;99509.52;375491;103;1960717;-73
2021/05/12 02:21:36;;;;;;;5.13;1.59;;;;;;;11.67;50.06;99514.54;364288;108;1960918;-72
2021/05/12 02:22:42;;;;;;;7.42;2.11;;;;;;;11.66;50.27;99510.16;312735;108;2869902;-73
2021/05/12 02:23:54;;;;;;;4.65;1.81;;;;;;;11.76;50.36;99504.28;393793;104;1986950;-75
2021/05/12 02:25:01;;;;;;;14.30;2.31;;;;;;;11.66;50.27;99512.86;375547;107;1962030;-74
2021/05/12 02:26:32;;;;;;;5.86;1.63;;;;;;;11.73;50.80;99507.42;416356;99;1988183;-73
2021/05/12 02:27:38;;;;;;;5.78;2.18;;;;;;;11.60;50.80;99513.73;394622;103;1962031;-73
2021/05/12 02:28:43;;;;;;;5.02;2.05;;;;;;;11.56;50.71;99520.61;394321;101;1961948;-72
2021/05/12 02:30:00;;;;;;;6.96;1.36;;;;;;;11.66;50.70;99519.09;380862;106;2988983;-73
2021/05/12 02:31:03;;;;;;;20.41;4.36;;;;;;;11.51;50.74;99517.72;370187;109;1961958;-73
2021/05/12 02:32:17;;;;;;;8.33;1.72;;;;;;;11.64;50.86;99517.66;342798;106;2752928;-70
2021/05/12 02:33:23;;;;;;;6.77;1.92;;;;;;;11.52;50.88;99524.81;371665;107;1962921;-72
2021/05/12 02:34:46;;;;;;;4.69;1.63;;;;;;;11.52;50.88;99530.22;355458;109;1961931;-73
2021/05/12 02:35:52;;;;;;;10.89;2.53;;;;;;;11.51;50.96;99525.84;369988;109;1961912;-73
2021/05/12 02:37:04;;;;;;;8.32;2.04;;;;;;;11.62;51.10;99530.59;398974;103;1987015;-73
2021/05/12 02:38:11;;;;;;;8.26;1.99;;;;;;;11.49;51.10;99534.19;338248;105;2661009;-73
2021/05/12 02:39:25;;;;;;;12.21;3.29;;;;;;;11.62;51.12;99525.18;395527;103;1964988;-71
2021/05/12 02:40:31;;;;;;;9.33;2.80;;;;;;;11.51;51.40;99540.22;352587;107;1969914;-72
2021/05/12 02:41:55;;;;;;;5.51;1.91;;;;;;;11.51;51.17;99529.39;330457;107;2697717;-72
2021/05/12 02:43:18;;;;;;;11.17;2.79;;;;;;;11.64;51.24;99526.63;395294;104;1961950;-72
2021/05/12 02:44:24;;;;;;;10.49;2.17;;;;;;;11.50;51.79;99527.72;361289;111;1969994;-73
2021/05/12 02:45:32;;;;;;;8.46;3.49;;;;;;;11.48;51.51;99537.91;327232;109;2560913;-72
2021/05/12 02:46:44;;;;;;;7.13;1.84;;;;;;;11.61;51.50;99528.91;394281;101;2957940;-72
2021/05/12 02:49:13;;;;;;;9.93;2.81;;;;;;;11.61;51.61;99529.73;393605;104;1967045;-72
2021/05/12 02:50:19;;;;;;;6.70;2.41;;;;;;;11.48;51.59;99523.56;346569;105;2419049;-72
2021/05/12 02:51:43;;;;;;;8.17;2.14;;;;;;;11.49;51.54;99523.36;373462;105;1961999;-72
2021/05/12 02:52:55;;;;;;;15.57;3.11;;;;;;;11.63;51.68;99524.12;381045;108;2072147;-72
2021/05/12 02:54:01;;;;;;;11.33;3.14;;;;;;;11.50;51.79;99514.19;363037;109;1961850;-73
2021/05/12 02:55:14;;;;;;;8.36;2.44;;;;;;;11.62;51.70;99531.41;355450;104;2868951;-73
2021/05/12 02:56:19;;;;;;;8.27;2.67;;;;;;;11.50;51.67;99530.42;356966;105;1961941;-73
2021/05/12 02:57:31;;;;;;;10.00;2.13;;;;;;;11.65;51.73;99525.56;399116;103;1986020;-73
2021/05/12 02:58:36;;;;;;;6.52;2.49;;;;;;;11.53;51.84;99529.98;377307;107;1961911;-71
2021/05/12 02:59:49;;;;;;;9.99;2.61;;;;;;;11.64;51.72;99529.33;370460;104;2238020;-72
2021/05/12 03:00:55;;;;;;;6.56;1.87;;;;;;;11.53;51.70;99529.98;374730;106;1961959;-73
2021/05/12 03:02:19;;;;;;;8.58;2.42;;;;;;;11.54;51.60;99530.84;305123;107;2242102;-73
2021/05/12 03:03:24;;;;;;;11.12;2.44;;;;;;;11.55;51.52;99533.31;375263;107;1961969;-72
2021/05/12 03:04:38;;;;;;;19.39;3.75;;;;;;;11.71;51.48;99525.75;394326;104;1987038;-72
2021/05/12 03:05:44;;;;;;;7.09;1.73;;;;;;;11.60;51.76;99522.67;378385;105;1962011;-72
2021/05/12 03:06:56;;;;;;;10.54;2.54;;;;;;;11.70;51.49;99522.22;387781;106;1986020;-72
2021/05/12 03:08:03;;;;;;;5.21;1.63;;;;;;;11.59;51.36;99528.29;332861;109;2911027;-72
2021/05/12 03:09:28;;;;;;;9.16;2.37;;;;;;;11.60;51.35;99528.09;322008;111;2236030;-72
2021/05/12 03:10:40;;;;;;;11.24;2.71;;;;;;;11.70;51.75;99530.34;391815;104;2071907;-72
2021/05/12 03:11:46;;;;;;;7.82;2.23;;;;;;;11.58;51.79;99530.17;381373;104;1961874;-72
2021/05/12 03:12:59;;;;;;;6.81;2.17;;;;;;;11.73;51.54;99534.48;399748;103;2073028;-70
2021/05/12 03:14:06;;;;;;;8.57;2.18;;;;;;;11.60;51.55;99532.67;378874;105;1961942;-71
2021/05/12 03:15:21;;;;;;;10.23;2.64;;;;;;;11.73;51.61;99523.66;396394;104;1985999;-73
2021/05/12 03:16:29;;;;;;;9.00;2.08;;;;;;;11.63;51.73;99532.23;360384;105;2318983;-72
2021/05/12 03:17:53;;;;;;;10.47;2.37;;;;;;;11.65;51.49;99522.86;336392;105;2043435;-72
2021/05/12 03:19:26;;;;;;;11.18;2.74;;;;;;;11.79;51.48;99526.31;396110;103;2071940;-71
2021/05/12 03:20:33;;;;;;;7.73;2.51;;;;;;;11.69;51.43;99523.24;343160;107;1962036;-73
2021/05/12 03:21:39;;;;;;;4.59;1.54;;;;;;;11.67;51.65;99522.66;379646;105;1961927;-71
2021/05/12 03:22:52;;;;;;;10.36;2.54;;;;;;;11.80;51.52;99527.99;347499;104;2784975;-73
2021/05/12 03:23:57;;;;;;;6.31;1.68;;;;;;;11.71;51.27;99517.62;372616;105;1962967;-71
2021/05/12 03:25:11;;;;;;;6.02;1.67;;;;;;;11.85;51.15;99524.61;391624;104;2071890;-72
2021/05/12 03:26:18;;;;;;;7.73;1.99;;;;;;;11.74;51.17;99522.60;370148;107;1961910;-71
2021/05/12 03:27:42;;;;;;;12.86;2.74;;;;;;;11.72;51.23;99520.09;372668;107;1961940;-73
2021/05/12 03:28:47;;;;;;;9.89;3.39;;;;;;;11.71;51.33;99525.75;375599;107;1961939;-73
2021/05/12 03:30:00;;;;;;;15.22;2.15;;;;;;;11.84;51.32;99523.78;399296;104;1985833;-72
2021/05/12 03:31:05;;;;;;;5.91;2.16;;;;;;;11.76;51.34;99528.63;342791;107;2510935;-72
2021/05/12 03:32:11;;;;;;;6.24;1.87;;;;;;;11.78;51.24;99521.13;349332;107;1960890;-72
2021/05/12 03:33:23;;;;;;;5.49;1.56;;;;;;;11.93;51.24;99515.44;401913;104;1988025;-72
2021/05/12 03:34:29;;;;;;;9.70;2.58;;;;;;;11.82;51.16;99522.34;375830;108;1962017;-72
2021/05/12 03:35:42;;;;;;;9.24;2.29;;;;;;;11.94;51.16;99519.82;397733;103;1964565;-73
2021/05/12 03:36:47;;;;;;;7.61;1.97;;;;;;;11.83;51.18;99507.78;374828;107;1968951;-72
2021/05/12 03:38:12;;;;;;;8.18;2.00;;;;;;;11.84;51.20;99515.67;376002;106;1961967;-71
2021/05/12 03:39:17;;;;;;;4.37;1.36;;;;;;;11.88;51.09;99518.79;374758;107;1962037;-71
2021/05/12 03:40:30;;;;;;;3.29;1.48;;;;;;;12.00;51.07;99519.76;359860;104;2229955;-74
2021/05/12 03:41:35;;;;;;;8.72;2.26;;;;;;;11.88;51.26;99513.37;369815;107;1962003;-74
2021/05/12 03:42:41;;;;;;;9.80;5.02;;;;;;;11.90;51.45;99521.29;377067;107;1961915;-73
2021/05/12 03:43:46;;;;;;;11.13;2.34;;;;;;;11.91;51.32;99512.11;372692;107;1961963;-73
2021/05/12 03:44:59;;;;;;;4.29;1.67;;;;;;;12.02;51.21;99512.25;412591;101;1987923;-73
2021/05/12 03:46:05;;;;;;;7.33;2.21;;;;;;;11.95;50.99;99516.88;373466;103;1961882;-73
2021/05/12 03:47:10;;;;;;;8.09;2.83;;;;;;;11.98;50.95;99507.48;380500;103;1961927;-73
2021/05/12 03:48:16;;;;;;;7.71;1.54;;;;;;;11.98;51.02;99516.44;374195;108;1961920;-73
2021/05/12 03:49:24;;;;;;;6.67;1.39;;;;;;;11.99;51.03;99520.82;376241;106;1961995;-73
2021/05/12 03:50:38;;;;;;;11.22;2.72;;;;;;;12.10;50.97;99513.87;400926;104;1987016;-74
2021/05/12 03:51:44;;;;;;;4.97;1.29;;;;;;;12.03;50.87;99518.49;334075;107;2026355;-73
2021/05/12 03:52:49;;;;;;;6.26;1.66;;;;;;;12.05;50.87;99519.11;355411;105;1962054;-73
2021/05/12 03:54:01;;;;;;;4.98;1.76;;;;;;;12.14;51.00;99508.83;392745;104;1986956;-74
2021/05/12 03:55:09;;;;;;;7.96;2.92;;;;;;;12.02;51.03;99517.67;371850;108;1961978;-73
2021/05/12 03:56:21;;;;;;;3.79;1.31;;;;;;;12.14;51.05;99512.36;391131;102;1985886;-73
2021/05/12 03:57:27;;;;;;;4.09;1.36;;;;;;;12.04;50.98;99514.72;366362;109;1962046;-73
2021/05/12 03:58:50;;;;;;;7.77;2.12;;;;;;;12.06;50.88;99513.45;374229;108;1964964;-73
2021/05/12 04:00:14;;;;;;;7.47;2.22;;;;;;;12.25;50.82;99505.41;358043;101;2753906;-72
2021/05/12 04:01:20;;;;;;;3.72;1.22;;;;;;;12.15;50.80;99499.68;385819;105;1962941;-73
2021/05/12 04:02:33;;;;;;;8.42;3.08;;;;;;;12.28;50.88;99504.98;363452;101;2686301;-73
2021/05/12 04:03:38;;;;;;;13.64;3.99;;;;;;;12.19;50.52;99504.41;347772;103;1964815;-73
2021/05/12 04:05:02;;;;;;;5.72;1.73;;;;;;;12.21;50.53;99504.20;375300;105;1961995;-73
2021/05/12 04:06:14;;;;;;;6.89;2.64;;;;;;;12.34;50.60;99501.38;392347;104;1961917;-73
2021/05/12 04:07:19;;;;;;;4.99;1.91;;;;;;;12.25;50.48;99502.70;373255;107;1970040;-74
2021/05/12 04:08:32;;;;;;;4.87;1.20;;;;;;;12.38;50.40;99491.75;384813;104;2934943;-73
2021/05/12 04:09:38;;;;;;;15.79;2.38;;;;;;;12.28;50.29;99503.10;372173;108;1961979;-74
2021/05/12 04:10:43;;;;;;;6.27;1.74;;;;;;;12.29;50.24;99502.04;371095;108;1962023;-73
2021/05/12 04:11:56;;;;;;;6.41;1.19;;;;;;;12.43;50.04;99510.88;397242;104;1985949;-73
2021/05/12 04:13:02;;;;;;;5.33;1.45;;;;;;;12.33;50.00;99510.55;329986;105;2803843;-73
2021/05/12 04:14:22;;;;;;;10.36;2.36;;;;;;;12.44;50.04;99504.42;383567;106;2072050;-73
2021/05/12 04:15:28;;;;;;;8.44;2.12;;;;;;;12.36;50.05;99506.56;364667;110;1962931;-73
2021/05/12 04:16:52;;;;;;;11.04;3.15;;;;;;;12.39;49.95;99514.27;341114;107;2236909;-73
2021/05/12 04:17:59;;;;;;;4.53;1.55;;;;;;;12.44;49.88;99514.44;369542;107;1962002;-73
2021/05/12 04:19:11;;;;;;;10.69;2.84;;;;;;;12.58;49.93;99515.14;350335;106;2518038;-73
2021/05/12 04:20:19;;;;;;;10.69;2.81;;;;;;;12.49;49.82;99518.14;353539;109;1962601;-73
2021/05/12 04:21:33;;;;;;;9.43;2.44;;;;;;;12.73;49.63;99521.05;383576;107;2002974;-73
2021/05/12 04:22:57;;;;;;;6.01;1.35;;;;;;;12.76;49.61;99518.70;360925;103;1972907;-73
2021/05/12 04:24:03;;;;;;;5.78;1.26;;;;;;;12.65;49.51;99514.03;375310;106;1961890;-72
2021/05/12 04:25:15;;;;;;;4.41;1.30;;;;;;;12.66;49.47;99520.28;375330;106;1961998;-72
2021/05/12 04:26:46;;;;;;;6.97;1.38;;;;;;;12.78;49.43;99515.79;391306;99;1986920;-72
2021/05/12 04:27:52;;;;;;;8.54;1.49;;;;;;;12.69;49.35;99507.09;395651;101;1961982;-74
2021/05/12 04:29:09;;;;;;;6.80;1.64;;;;;;;12.71;49.38;99515.84;392634;101;1962024;-74
2021/05/12 04:30:17;;;;;;;11.26;2.14;;;;;;;12.71;49.34;99515.84;373452;107;1961983;-74
2021/05/12 04:31:23;;;;;;;9.16;2.76;;;;;;;12.79;49.12;99517.44;369588;106;1961942;-73
2021/05/12 04:32:29;;;;;;;8.44;1.69;;;;;;;12.88;48.98;99520.67;371360;106;1960974;-73
2021/05/12 04:33:52;;;;;;;5.26;1.57;;;;;;;12.95;49.15;99521.44;372900;109;1963965;-73
2021/05/12 04:34:57;;;;;;;10.12;1.34;;;;;;;12.82;49.37;99511.56;351531;111;1969927;-74
2021/05/12 04:36:03;;;;;;;7.62;3.27;;;;;;;12.86;49.18;99520.06;354882;113;1961844;-73
2021/05/12 04:37:15;;;;;;;7.00;2.01;;;;;;;13.01;49.21;99514.28;365549;103;2070892;-74
2021/05/12 04:38:21;;;;;;;11.27;2.66;;;;;;;13.00;48.98;99520.77;372158;106;1961954;-74
2021/05/12 04:39:35;;;;;;;14.96;3.20;;;;;;;13.14;48.91;99514.14;346435;104;2234890;-75
2021/05/12 04:40:40;;;;;;;8.07;2.34;;;;;;;13.05;49.00;99518.22;360126;105;1961912;-74
2021/05/12 04:41:46;;;;;;;6.91;1.81;;;;;;;13.11;48.92;99514.59;379874;105;1961976;-74
2021/05/12 04:42:58;;;;;;;13.96;1.74;;;;;;;13.21;48.96;99517.61;404763;101;1985960;-73
2021/05/12 04:44:05;;;;;;;5.97;1.99;;;;;;;13.17;48.76;99519.10;355480;105;2390175;-74
2021/05/12 04:45:19;;;;;;;7.10;1.85;;;;;;;13.31;48.83;99511.66;394159;104;1965025;-74
2021/05/12 04:46:26;;;;;;;7.20;1.71;;;;;;;13.22;48.80;99508.41;360061;106;1961915;-74
2021/05/12 04:47:57;;;;;;;4.25;1.45;;;;;;;13.20;48.76;99505.08;348630;109;2343989;-73
2021/05/12 04:49:06;;;;;;;10.62;1.59;;;;;;;13.20;48.78;99507.80;373028;106;1962082;-75
2021/05/12 04:50:17;;;;;;;15.65;3.17;;;;;;;13.35;48.72;99504.73;397205;104;1985960;-73
2021/05/12 04:51:23;;;;;;;9.92;1.88;;;;;;;13.23;48.87;99504.66;380579;105;1961056;-73
2021/05/12 04:52:29;;;;;;;6.61;1.36;;;;;;;13.30;48.62;99513.55;325367;103;2830887;-74
2021/05/12 04:53:41;;;;;;;3.39;1.55;;;;;;;13.44;48.54;99506.06;387557;106;1964869;-74
2021/05/12 04:54:46;;;;;;;8.46;2.52;;;;;;;13.37;48.45;99518.91;362682;105;1961715;-72
2021/05/12 04:55:59;;;;;;;5.24;1.24;;;;;;;13.55;48.38;99512.63;356901;104;2618945;-74
2021/05/12 04:57:05;;;;;;;6.47;1.75;;;;;;;13.46;48.32;99511.28;349285;107;1961934;-74
2021/05/12 04:58:10;;;;;;;5.38;1.16;;;;;;;13.45;48.33;99507.74;374597;107;1962025;-74
2021/05/12 04:59:22;;;;;;;8.53;2.84;;;;;;;13.57;48.34;99516.74;395477;104;1985973;-74
2021/05/12 05:00:29;;;;;;;7.24;2.12;;;;;;;13.50;48.28;99520.63;347793;107;2361961;-74
2021/05/12 05:01:41;;;;;;;7.47;2.22;;;;;;;13.59;48.27;99514.64;391666;104;2079921;-74
2021/05/12 05:02:47;;;;;;;7.75;2.69;;;;;;;13.52;48.13;99516.63;377208;107;1962113;-73
2021/05/12 05:04:00;;;;;;;6.56;1.66;;;;;;;13.67;48.04;99512.67;379555;104;2070906;-73
2021/05/12 05:05:08;;;;;;;5.73;1.58;;;;;;;13.61;47.85;99525.28;371020;107;1961953;-73
2021/05/12 05:06:33;;;;;;;13.05;4.06;;;;;;;13.62;47.83;99516.06;372053;107;1962034;-73
2021/05/12 05:07:46;;;;;;;4.86;1.65;;;;;;;13.74;47.88;99514.23;398437;104;1986023;-75
2021/05/12 05:08:52;;;;;;;8.11;2.12;;;;;;;13.57;47.99;99519.45;371503;101;1960846;-73
2021/05/12 05:10:06;;;;;;;6.08;2.18;;;;;;;13.67;47.96;99518.92;386729;103;1959730;-75
2021/05/12 05:11:12;;;;;;;7.47;2.05;;;;;;;13.62;47.82;99524.20;359317;109;1970081;-75
2021/05/12 05:12:18;;;;;;;7.59;2.59;;;;;;;13.67;47.80;99526.24;309142;110;2813048;-74
2021/05/12 05:13:23;;;;;;;7.85;1.77;;;;;;;13.73;47.69;99512.56;339550;110;1961814;-74
2021/05/12 05:14:35;;;;;;;4.66;1.52;;;;;;;13.78;47.83;99518.13;396517;104;1984742;-73
2021/05/12 05:15:41;;;;;;;9.82;3.46;;;;;;;13.71;47.68;99522.84;370780;105;1960904;-74
2021/05/12 05:16:53;;;;;;;5.29;1.66;;;;;;;13.88;47.67;99508.62;368544;103;2071889;-75
2021/05/12 05:17:59;;;;;;;6.82;2.21;;;;;;;13.76;47.66;99511.27;374649;106;1960999;-82
2021/05/12 05:19:23;;;;;;;9.61;2.92;;;;;;;13.74;47.77;99519.67;330461;108;2670869;-74
2021/05/12 05:20:38;;;;;;;12.32;3.70;;;;;;;13.94;47.67;99521.26;347731;104;2752956;-75
2021/05/12 05:21:44;;;;;;;4.89;1.46;;;;;;;13.84;47.59;99514.52;378745;107;1961935;-75
2021/05/12 05:23:05;;;;;;;6.45;1.79;;;;;;;13.99;47.43;99510.53;338153;106;2827030;-74
2021/05/12 05:24:11;;;;;;;7.69;2.12;;;;;;;13.90;47.44;99514.66;367564;108;1961986;-74
2021/05/12 05:25:36;;;;;;;17.06;7.82;;;;;;;13.92;47.39;99517.94;355924;111;1963894;-74
2021/05/12 05:26:48;;;;;;;8.19;2.13;;;;;;;14.03;47.38;99517.98;395460;103;1962973;-75
2021/05/12 05:27:56;;;;;;;10.65;2.69;;;;;;;13.49;47.33;99434.84;376781;106;1968932;-74